.
WxDataArchive / Data Records for 2007-03-26
2007-03-25 March 2007 2007-03-27

Data Records for Monday, 26 March 2007

Time	Temp	Chill	HIndex	Humid	Dewpt	 Wind 	HiWind	WindDir	Rain 	Barom 
-----	----	-----	------	-----	-----	------	------	-------	-----	----- 
00:00	63.4	63.4	63.4	71	53.8	0	1	225	0.00	30.029 
00:05	63.4	63.4	63.4	72	54.2	0	0	---	0.00	30.027 
00:10	63.2	63.2	63.2	72	54.0	0	0	---	0.00	30.026 
00:15	63.2	63.2	63.2	71	53.6	0	1	202	0.00	30.024 
00:20	63.4	63.4	63.4	71	53.8	0	1	202	0.00	30.021 
00:25	63.5	63.5	63.5	70	53.5	0	1	202	0.00	30.021 
00:30	63.5	63.5	63.5	71	53.9	0	1	202	0.00	30.025 
00:35	63.2	63.2	63.2	71	53.6	0	1	202	0.00	30.025 
00:40	63.1	63.1	63.1	72	53.9	0	0	---	0.00	30.024 
00:45	62.9	62.9	62.9	72	53.7	0	0	---	0.00	30.024 
00:50	62.6	62.6	62.6	73	53.8	0	2	202	0.00	30.016 
00:55	62.7	62.7	62.7	72	53.5	0	1	202	0.00	30.013 
01:00	62.7	62.7	62.7	72	53.5	0	0	---	0.00	30.013 
01:05	62.6	62.6	62.6	72	53.4	0	0	---	0.00	30.014 
01:10	62.4	62.4	62.4	73	53.6	0	0	---	0.00	30.015 
01:15	62.1	62.1	62.1	73	53.3	0	0	---	0.00	30.012 
01:20	62.0	62.0	62.0	74	53.6	0	0	---	0.00	30.013 
01:25	61.6	61.6	61.6	74	53.2	0	0	---	0.00	30.011 
01:30	61.5	61.5	61.5	75	53.5	0	0	---	0.00	30.011 
01:35	61.3	61.3	61.3	75	53.3	0	0	---	0.00	30.011 
01:40	61.3	61.3	61.3	75	53.3	0	0	---	0.00	30.010 
01:45	61.2	61.2	61.2	75	53.2	0	0	---	0.00	30.009 
01:50	61.0	61.0	61.0	75	53.0	0	1	202	0.00	30.008 
01:55	60.9	60.9	60.9	75	52.9	0	0	---	0.00	30.006 
02:00	60.9	60.9	60.9	75	52.9	0	1	202	0.00	30.005 
02:05	61.0	61.0	61.0	75	53.0	0	1	202	0.00	30.007 
02:10	61.2	61.2	61.2	74	52.8	0	1	202	0.00	30.006 
02:15	61.5	61.5	61.5	73	52.8	0	2	225	0.00	30.004 
02:20	62.0	62.0	62.0	73	53.2	0	2	225	0.00	30.006 
02:25	62.3	62.3	62.3	71	52.8	0	1	225	0.00	30.000 
02:30	62.4	62.4	62.4	71	52.9	0	2	225	0.00	29.999 
02:35	62.6	62.6	62.6	70	52.7	0	2	248	0.00	30.000 
02:40	62.7	62.7	62.7	70	52.8	0	2	248	0.00	29.999 
02:45	63.1	63.1	63.1	69	52.8	1	3	248	0.00	29.999 
02:50	63.4	63.4	63.4	68	52.6	1	4	248	0.00	30.000 
02:55	63.5	63.5	63.5	67	52.3	1	3	248	0.00	30.000 
03:00	63.7	63.7	63.7	67	52.5	0	3	248	0.00	29.996 
03:05	63.9	63.9	63.9	66	52.3	1	3	292	0.00	29.995 
03:10	63.9	63.9	63.9	66	52.3	1	3	225	0.00	29.995 
03:15	63.9	63.9	63.9	66	52.3	0	2	248	0.00	29.996 
03:20	63.5	63.5	63.5	67	52.3	0	1	270	0.00	29.996 
03:25	63.1	63.1	63.1	68	52.4	0	1	270	0.00	29.995 
03:30	63.1	63.1	63.1	68	52.4	1	3	270	0.00	29.994 
03:35	62.9	62.9	62.9	68	52.2	0	2	270	0.00	29.992 
03:40	63.1	63.1	63.1	68	52.4	1	3	270	0.00	29.987 
03:45	63.1	63.1	63.1	68	52.4	0	2	248	0.00	29.981 
03:50	63.1	63.1	63.1	68	52.4	1	4	248	0.00	29.982 
03:55	63.1	63.1	63.1	68	52.4	1	5	225	0.00	29.983 
04:00	63.1	63.1	63.1	68	52.4	1	3	248	0.00	29.984 
04:05	63.1	63.1	63.1	68	52.4	1	3	248	0.00	29.982 
04:10	63.2	63.2	63.2	67	52.1	1	3	248	0.00	29.980 
04:15	63.5	63.5	63.5	67	52.3	1	7	248	0.00	29.981 
04:20	63.9	63.9	63.9	66	52.3	1	3	248	0.00	29.981 
04:25	64.2	64.2	64.2	66	52.6	2	5	248	0.00	29.980 
04:30	64.2	64.2	64.2	66	52.6	1	5	248	0.00	29.980 
04:35	64.3	64.3	64.3	66	52.7	2	4	225	0.00	29.981 
04:40	64.3	64.3	64.3	66	52.7	1	3	248	0.00	29.983 
04:45	64.3	64.3	64.3	66	52.7	1	4	248	0.00	29.989 
04:50	64.3	64.3	64.3	66	52.7	1	4	248	0.00	29.992 
04:55	64.2	64.2	64.2	66	52.6	1	5	248	0.00	29.991 
05:00	64.0	64.0	64.0	67	52.8	0	3	248	0.00	29.989 
05:05	63.9	63.9	63.9	68	53.1	1	3	248	0.00	29.991 
05:10	63.9	63.9	63.9	68	53.1	2	6	248	0.00	29.993 
05:15	64.0	64.0	64.0	67	52.8	2	5	248	0.00	29.991 
05:20	64.2	64.2	64.2	67	53.0	2	4	248	0.00	29.993 
05:25	64.2	64.2	64.2	67	53.0	1	4	248	0.00	29.995 
05:30	64.3	64.3	64.3	67	53.1	2	5	248	0.00	29.995 
05:35	64.2	64.2	64.2	67	53.0	1	4	248	0.00	29.995 
05:40	64.2	64.2	64.2	68	53.4	2	6	270	0.00	29.995 
05:45	64.2	64.2	64.2	68	53.4	2	5	248	0.00	29.995 
05:50	64.2	64.2	64.2	68	53.4	2	5	248	0.00	29.995 
05:55	64.0	64.0	64.0	68	53.2	1	4	248	0.00	29.995 
06:00	64.0	64.0	64.0	68	53.2	2	6	248	0.00	29.996 
06:05	64.0	64.0	64.0	68	53.2	2	5	225	0.00	29.998 
06:10	63.9	63.9	63.9	69	53.5	1	4	248	0.00	29.997 
06:15	63.7	63.7	63.7	69	53.3	1	3	248	0.00	29.997 
06:20	63.5	63.5	63.5	69	53.1	1	3	248	0.00	29.997 
06:25	63.4	63.4	63.4	70	53.4	1	3	248	0.00	29.999 
06:30	63.2	63.2	63.2	70	53.2	1	3	248	0.00	29.998 
06:35	63.4	63.4	63.4	70	53.4	1	3	248	0.00	29.998 
06:40	63.4	63.4	63.4	70	53.4	1	4	248	0.00	29.998 
06:45	63.4	63.4	63.4	71	53.8	1	6	248	0.00	29.997 
06:50	63.2	63.2	63.2	71	53.6	1	4	248	0.00	29.998 
06:55	63.1	63.1	63.1	71	53.5	1	4	248	0.00	29.998 
07:00	63.1	63.1	63.1	72	53.9	1	3	248	0.00	29.998 
07:05	62.9	62.9	62.9	72	53.7	1	3	248	0.00	30.001 
07:10	62.9	62.9	62.9	72	53.7	1	3	248	0.00	30.000 
07:15	62.7	62.7	62.7	72	53.5	1	3	248	0.00	30.001 
07:20	62.9	62.9	62.9	72	53.7	1	4	248	0.00	30.001 
07:25	62.9	62.9	62.9	72	53.7	1	3	248	0.00	30.001 
07:30	63.1	63.1	63.1	72	53.9	2	4	248	0.00	30.001 
07:35	63.2	63.2	63.2	72	54.0	2	5	248	0.00	30.002 
07:40	63.4	63.4	63.4	72	54.2	2	5	248	0.00	30.002 
07:45	63.4	63.4	63.4	72	54.2	2	6	248	0.00	30.003 
07:50	63.5	63.5	63.5	72	54.3	2	4	248	0.00	30.001 
07:55	63.5	63.5	63.5	72	54.3	2	5	248	0.00	30.002 
08:00	63.7	63.7	63.7	71	54.1	2	7	248	0.00	30.002 
08:05	63.9	63.9	63.9	71	54.3	2	5	248	0.00	30.003 
08:10	64.0	64.0	64.0	71	54.4	3	7	248	0.00	30.002 
08:15	64.0	64.0	64.0	71	54.4	3	6	248	0.00	30.002 
08:20	64.2	64.2	64.2	71	54.6	3	6	248	0.00	30.002 
08:25	64.3	64.3	64.3	70	54.3	3	7	248	0.00	30.001 
08:30	64.3	64.3	64.3	71	54.7	3	9	248	0.00	29.999 
08:35	64.3	64.3	64.3	71	54.7	3	7	248	0.00	29.998 
08:40	64.5	64.5	64.5	71	54.9	3	9	248	0.00	29.993 
08:45	64.5	64.5	64.5	71	54.9	3	7	248	0.00	29.994 
08:50	64.7	64.7	64.7	70	54.7	3	5	248	0.00	29.994 
08:55	64.7	64.7	64.7	70	54.7	3	6	248	0.00	29.995 
09:00	64.8	64.8	64.8	70	54.8	3	6	248	0.00	29.993 
09:05	65.0	65.0	65.0	70	55.0	2	6	248	0.00	30.000 
09:10	65.2	65.2	65.2	70	55.2	2	6	248	0.00	30.002 
09:15	65.6	65.6	65.6	69	55.1	3	9	248	0.00	29.999 
09:20	65.8	65.8	65.8	69	55.3	4	10	248	0.00	29.998 
09:25	66.1	66.1	66.1	68	55.2	3	6	248	0.00	29.997 
09:30	66.4	66.4	66.4	67	55.1	4	7	248	0.00	29.996 
09:35	66.6	66.6	66.6	68	55.7	4	12	248	0.00	29.998 
09:40	66.8	66.8	66.8	67	55.5	5	9	248	0.00	29.997 
09:45	67.3	67.3	67.3	66	55.5	3	10	248	0.00	29.999 
09:50	67.8	67.8	67.8	65	55.6	5	11	248	0.00	29.994 
09:55	68.4	68.4	68.4	65	56.2	5	12	248	0.00	29.989 
10:00	68.9	68.9	68.9	64	56.2	4	10	270	0.00	29.990 
10:05	69.1	69.1	69.1	63	56.0	5	14	270	0.00	29.987 
10:10	69.4	69.4	69.4	63	56.2	6	13	270	0.00	29.988 
10:15	69.8	69.8	69.8	62	56.2	5	15	270	0.00	29.988 
10:20	70.1	70.1	70.1	62	56.5	5	15	270	0.00	29.986 
10:25	70.3	70.3	70.3	62	56.7	6	11	270	0.00	29.984 
10:30	70.1	70.1	70.1	62	56.5	5	11	248	0.00	29.983 
10:35	70.4	70.4	70.4	62	56.7	4	10	248	0.00	29.983 
10:40	70.9	70.9	70.9	61	56.8	6	11	270	0.00	29.982 
10:45	71.1	71.1	71.1	60	56.5	6	13	270	0.00	29.982 
10:50	71.1	71.1	71.1	60	56.5	6	12	270	0.00	29.980 
10:55	71.6	71.6	71.6	61	57.4	4	12	270	0.00	29.979 
11:00	72.1	72.1	72.1	60	57.4	4	11	270	0.00	29.980 
11:05	72.5	72.5	72.5	59	57.3	5	15	270	0.00	29.979 
11:10	72.3	72.3	72.3	60	57.6	6	13	270	0.00	29.979 
11:15	72.1	72.1	72.1	59	57.0	7	17	270	0.00	29.979 
11:20	72.1	72.1	72.1	60	57.4	4	12	270	0.00	29.976 
11:25	72.1	72.1	72.1	62	58.3	4	9	270	0.00	29.980 
11:30	72.7	72.7	72.7	61	58.5	5	11	270	0.00	29.978 
11:35	73.2	73.2	73.2	60	58.5	7	17	248	0.00	29.978 
11:40	73.9	73.9	73.9	60	59.1	5	12	248	0.00	29.980 
11:45	74.2	74.2	74.2	58	58.5	5	14	270	0.00	29.978 
11:50	73.7	73.7	73.7	60	58.9	5	10	270	0.00	29.979 
11:55	73.9	73.9	73.9	58	58.2	6	15	270	0.00	29.978 
12:00	74.0	74.0	74.0	61	59.7	5	13	270	0.00	29.980 
12:05	74.4	74.4	74.4	58	58.6	5	15	270	0.00	29.982 
12:10	74.7	74.7	74.7	59	59.4	4	10	270	0.00	29.980 
12:15	74.6	74.6	74.6	59	59.3	6	15	270	0.00	29.980 
12:20	74.7	74.7	74.7	58	58.9	5	15	270	0.00	29.979 
12:25	75.1	75.1	77.5	58	59.3	3	6	270	0.00	29.976 
12:30	74.7	74.7	74.7	58	58.9	5	12	270	0.00	29.977 
12:35	74.4	74.4	74.4	61	60.1	5	11	270	0.00	29.978 
12:40	74.2	74.2	74.2	58	58.5	7	17	270	0.00	29.978 
12:45	74.6	74.6	74.6	58	58.8	7	14	270	0.00	29.976 
12:50	75.1	75.1	77.5	57	58.8	5	16	270	0.00	29.977 
12:55	74.9	74.9	74.9	57	58.6	8	18	270	0.00	29.975 
13:00	75.1	75.1	77.5	59	59.8	5	12	270	0.00	29.971 
13:05	76.0	76.0	78.0	58	60.1	4	7	270	0.00	29.972 
13:10	76.5	76.5	78.4	57	60.1	4	10	270	0.00	29.967 
13:15	76.7	76.7	78.5	54	58.8	7	15	270	0.00	29.969 
13:20	76.3	76.3	78.3	54	58.4	6	12	270	0.00	29.968 
13:25	76.8	76.8	78.6	57	60.4	4	15	270	0.00	29.967 
13:30	77.0	77.0	78.7	55	59.6	7	14	270	0.00	29.964 
13:35	77.2	77.2	78.8	53	58.7	6	15	270	0.00	29.964 
13:40	76.8	76.8	78.5	53	58.4	8	16	270	0.00	29.965 
13:45	76.7	76.7	78.5	54	58.8	6	18	270	0.00	29.963 
13:50	76.8	76.8	78.5	52	57.8	6	17	270	0.00	29.964 
13:55	77.0	77.0	78.6	51	57.5	7	18	270	0.00	29.964 
14:00	77.4	77.4	78.9	51	57.8	6	11	270	0.00	29.963 
14:05	77.6	77.6	79.0	51	58.0	5	13	270	0.00	29.958 
14:10	77.6	77.6	79.0	52	58.6	5	13	270	0.00	29.955 
14:15	77.2	77.2	78.8	52	58.2	5	10	270	0.00	29.960 
14:20	76.8	76.8	78.5	52	57.8	7	15	270	0.00	29.960 
14:25	76.8	76.8	78.5	53	58.4	5	10	270	0.00	29.962 
14:30	76.5	76.5	78.4	54	58.6	6	14	270	0.00	29.962 
14:35	76.7	76.7	78.5	54	58.8	5	14	270	0.00	29.962 
14:40	76.5	76.5	78.4	53	58.1	6	16	248	0.00	29.963 
14:45	76.7	76.7	78.5	53	58.3	5	11	270	0.00	29.963 
14:50	76.8	76.8	78.5	53	58.4	4	10	270	0.00	29.964 
14:55	76.8	76.8	78.5	52	57.8	5	12	270	0.00	29.964 
15:00	77.2	77.2	78.7	51	57.6	6	17	270	0.00	29.965 
15:05	76.8	76.8	78.5	52	57.8	6	12	270	0.00	29.965 
15:10	77.0	77.0	78.7	52	58.0	7	16	270	0.00	29.966 
15:15	77.2	77.2	78.7	51	57.6	6	13	270	0.00	29.969 
15:20	76.7	76.7	78.5	52	57.7	6	16	270	0.00	29.968 
15:25	76.3	76.3	78.2	53	57.9	6	11	248	0.00	29.967 
15:30	75.8	75.8	78.0	54	57.9	4	12	270	0.00	29.966 
15:35	75.4	75.4	77.7	55	58.1	4	10	270	0.00	29.973 
15:40	75.3	75.3	77.7	55	58.0	6	15	270	0.00	29.973 
15:45	75.3	75.3	77.6	57	59.0	4	10	270	0.00	29.968 
15:50	76.1	76.1	78.1	54	58.2	4	14	248	0.00	29.966 
15:55	76.5	76.5	78.4	53	58.1	7	11	248	0.00	29.968 
16:00	76.5	76.5	78.4	54	58.6	5	13	248	0.00	29.965 
16:05	76.1	76.1	78.1	55	58.7	4	10	248	0.00	29.970 
16:10	76.1	76.1	78.1	56	59.2	4	10	270	0.00	29.966 
16:15	76.5	76.5	78.4	55	59.1	3	7	248	0.00	29.963 
16:20	76.3	76.3	78.3	54	58.4	4	12	248	0.00	29.964 
16:25	76.5	76.5	78.4	54	58.6	6	14	248	0.00	29.963 
16:30	76.7	76.7	78.5	52	57.7	6	12	248	0.00	29.963 
16:35	76.8	76.8	78.5	52	57.8	6	13	270	0.00	29.965 
16:40	76.8	76.8	78.6	54	58.9	5	14	270	0.00	29.963 
16:45	77.0	77.0	78.7	52	58.0	4	11	248	0.00	29.964 
16:50	76.5	76.5	78.4	53	58.1	7	16	248	0.00	29.963 
16:55	76.5	76.5	78.4	53	58.1	6	14	248	0.00	29.965 
17:00	76.3	76.3	78.2	51	56.8	6	15	270	0.00	29.966 
17:05	76.1	76.1	78.1	52	57.2	5	12	248	0.00	29.965 
17:10	75.8	75.8	78.0	53	57.4	5	12	270	0.00	29.966 
17:15	75.3	75.3	77.7	55	58.0	6	14	270	0.00	29.966 
17:20	75.1	75.1	77.6	55	57.8	6	13	270	0.00	29.967 
17:25	75.1	75.1	77.6	56	58.3	4	13	270	0.00	29.968 
17:30	75.1	75.1	77.6	55	57.8	6	15	248	0.00	29.968 
17:35	75.1	75.1	77.6	55	57.8	5	10	248	0.00	29.966 
17:40	75.3	75.3	77.7	56	58.5	4	9	248	0.00	29.964 
17:45	75.1	75.1	77.6	55	57.8	5	11	248	0.00	29.965 
17:50	74.7	74.7	74.7	56	57.9	6	13	248	0.00	29.968 
17:55	74.6	74.6	74.6	56	57.8	4	11	248	0.00	29.970 
18:00	74.4	74.4	74.4	57	58.2	4	9	248	0.00	29.969 
18:05	74.2	74.2	74.2	58	58.5	3	9	248	0.00	29.971 
18:10	74.0	74.0	74.0	58	58.3	2	5	248	0.00	29.974 
18:15	73.9	73.9	73.9	58	58.2	4	9	270	0.00	29.977 
18:20	73.9	73.9	73.9	58	58.2	4	9	248	0.00	29.978 
18:25	73.9	73.9	73.9	58	58.2	2	7	248	0.00	29.978 
18:30	73.7	73.7	73.7	59	58.5	3	7	248	0.00	29.977 
18:35	73.5	73.5	73.5	60	58.7	3	7	248	0.00	29.979 
18:40	73.3	73.3	73.3	60	58.6	2	3	248	0.00	29.978 
18:45	73.2	73.2	73.2	61	58.9	2	9	248	0.00	29.980 
18:50	73.0	73.0	73.0	61	58.7	2	7	248	0.00	29.981 
18:55	72.8	72.8	72.8	62	59.0	2	5	248	0.00	29.983 
19:00	72.5	72.5	72.5	62	58.7	2	6	248	0.00	29.983 
19:05	72.3	72.3	72.3	62	58.5	2	7	248	0.00	29.982 
19:10	72.3	72.3	72.3	62	58.5	3	9	248	0.00	29.983 
19:15	72.1	72.1	72.1	62	58.3	2	6	248	0.00	29.983 
19:20	71.8	71.8	71.8	63	58.5	1	4	248	0.00	29.984 
19:25	71.6	71.6	71.6	63	58.3	2	3	248	0.00	29.983 
19:30	71.5	71.5	71.5	64	58.7	2	4	248	0.00	29.983 
19:35	71.3	71.3	71.3	64	58.5	1	3	225	0.00	29.986 
19:40	71.1	71.1	71.1	65	58.7	1	3	248	0.00	29.988 
19:45	70.9	70.9	70.9	65	58.5	2	4	248	0.00	29.987 
19:50	70.6	70.6	70.6	66	58.7	1	3	225	0.00	29.990 
19:55	70.6	70.6	70.6	66	58.7	2	4	248	0.00	29.989 
20:00	70.6	70.6	70.6	66	58.7	1	4	248	0.00	29.990 
20:05	70.3	70.3	70.3	66	58.4	1	3	248	0.00	29.990 
20:10	70.1	70.1	70.1	67	58.6	1	4	248	0.00	29.991 
20:15	69.9	69.9	69.9	67	58.4	2	4	248	0.00	29.990 
20:20	69.8	69.8	69.8	68	58.7	1	5	248	0.00	29.989 
20:25	69.6	69.6	69.6	68	58.6	1	4	248	0.00	29.990 
20:30	69.4	69.4	69.4	69	58.8	2	5	248	0.00	29.992 
20:35	69.4	69.4	69.4	69	58.8	3	9	248	0.00	29.991 
20:40	69.4	69.4	69.4	69	58.8	2	5	248	0.00	29.993 
20:45	69.3	69.3	69.3	69	58.7	1	4	248	0.00	29.993 
20:50	69.3	69.3	69.3	69	58.7	2	7	248	0.00	29.993 
20:55	69.1	69.1	69.1	70	58.9	2	5	248	0.00	29.993 
21:00	69.1	69.1	69.1	70	58.9	2	6	248	0.00	29.992 
21:05	68.9	68.9	68.9	70	58.7	2	5	248	0.00	29.992 
21:10	68.9	68.9	68.9	70	58.7	2	6	248	0.00	29.990 
21:15	68.9	68.9	68.9	70	58.7	3	6	248	0.00	29.990 
21:20	68.9	68.9	68.9	70	58.7	3	9	248	0.00	29.992 
21:25	68.9	68.9	68.9	70	58.7	3	6	248	0.00	29.992 
21:30	68.9	68.9	68.9	70	58.7	2	7	248	0.00	29.993 
21:35	68.9	68.9	68.9	70	58.7	2	5	248	0.00	29.994 
21:40	68.9	68.9	68.9	70	58.7	3	6	248	0.00	29.994 
21:45	68.9	68.9	68.9	70	58.7	3	5	248	0.00	29.993 
21:50	68.9	68.9	68.9	70	58.7	3	7	248	0.00	29.993 
21:55	68.9	68.9	68.9	70	58.7	2	7	248	0.00	29.994 
22:00	68.8	68.8	68.8	70	58.6	2	4	248	0.00	29.994 
22:05	68.8	68.8	68.8	70	58.6	2	4	248	0.00	29.992 
22:10	68.8	68.8	68.8	70	58.6	3	9	225	0.00	29.993 
22:15	68.8	68.8	68.8	70	58.6	2	5	248	0.00	29.993 
22:20	68.8	68.8	68.8	70	58.6	2	5	248	0.00	29.994 
22:25	68.9	68.9	68.9	70	58.7	3	6	248	0.00	29.993 
22:30	68.9	68.9	68.9	69	58.3	2	7	248	0.00	29.993 
22:35	68.9	68.9	68.9	69	58.3	3	9	248	0.00	29.993 
22:40	68.9	68.9	68.9	69	58.3	3	5	248	0.00	29.994 
22:45	68.9	68.9	68.9	69	58.3	2	7	248	0.00	29.996 
22:50	68.9	68.9	68.9	69	58.3	3	9	248	0.00	29.996 
22:55	68.9	68.9	68.9	69	58.3	2	5	248	0.00	29.996 
23:00	68.8	68.8	68.8	69	58.2	2	6	248	0.00	29.996 
23:05	68.8	68.8	68.8	70	58.6	2	6	248	0.00	29.994 
23:10	68.6	68.6	68.6	70	58.4	2	4	248	0.00	29.995 
23:15	68.6	68.6	68.6	70	58.4	3	9	248	0.00	29.996 
23:20	68.4	68.4	68.4	70	58.2	2	6	248	0.00	29.995 
23:25	68.4	68.4	68.4	70	58.2	2	5	248	0.00	29.997 
23:30	68.4	68.4	68.4	70	58.2	3	7	248	0.00	29.996 
23:35	68.4	68.4	68.4	70	58.2	2	7	248	0.00	29.994 
23:40	68.4	68.4	68.4	70	58.2	3	7	248	0.00	29.995 
23:45	68.4	68.4	68.4	70	58.2	2	5	248	0.00	29.995 
23:50	68.3	68.3	68.3	70	58.1	2	4	248	0.00	29.994 
23:55	68.1	68.1	68.1	70	57.9	2	5	248	0.00	29.995 

CoCoRaHS
IN-AL-39
A2 Web Hosting
Creative Commons License
GoDaddy
Look for:

loaded 2017-10-19 12:35:23 • last modified 2010-11-18 10:43:29
Privacy PolicyDisclaimer
• wx.awcolley.com is powered by PmWiki v.2002016 •
• all content (unless otherwise noted) © 2017 A W Colley